createdAt,value
2022-09-26T00:00:47.823Z,82.68
2022-09-26T00:01:47.891Z,82.78
2022-09-26T00:02:47.838Z,82.68
2022-09-26T00:03:47.743Z,82.68
2022-09-26T00:04:47.728Z,82.78
2022-09-26T00:05:47.742Z,82.78
2022-09-26T00:06:47.729Z,82.03
2022-09-26T00:07:47.693Z,82.17
2022-09-26T00:08:47.707Z,81.77
2022-09-26T00:09:47.736Z,81.77
2022-09-26T00:10:47.661Z,82.07
2022-09-26T00:11:47.678Z,82.17
2022-09-26T00:12:47.675Z,81.57
2022-09-26T00:13:47.629Z,81.77
2022-09-26T00:14:47.624Z,82.17
2022-09-26T00:15:47.655Z,81.87
2022-09-26T00:16:47.690Z,81.77
2022-09-26T00:17:47.584Z,81.46
2022-09-26T00:18:47.624Z,81.06
2022-09-26T00:19:47.647Z,81.63
2022-09-26T00:20:47.563Z,81.37
2022-09-26T00:21:47.540Z,81.43
2022-09-26T00:22:47.544Z,81.46
2022-09-26T00:23:47.547Z,81.46
2022-09-26T00:24:47.550Z,80.45
2022-09-26T00:25:47.499Z,80.96
2022-09-26T00:26:47.510Z,81.37
2022-09-26T00:27:47.494Z,81.37
2022-09-26T00:28:47.490Z,81.57
2022-09-26T00:29:47.458Z,81.37
2022-09-26T00:30:47.509Z,81.26
2022-09-26T00:31:47.465Z,81.26
2022-09-26T00:32:47.457Z,81.57
2022-09-26T00:33:47.412Z,81.57
2022-09-26T00:34:47.467Z,80.76
2022-09-26T00:35:47.389Z,80.65
2022-09-26T00:36:47.375Z,80.55
2022-09-26T00:37:47.372Z,81.43
2022-09-26T00:38:47.375Z,81.67
2022-09-26T00:39:47.372Z,81.67
2022-09-26T00:40:47.425Z,80.55
2022-09-26T00:41:47.348Z,81.77
2022-09-26T00:42:47.343Z,81.26
2022-09-26T00:43:47.305Z,81.57
2022-09-26T00:44:47.318Z,81.37
2022-09-26T00:45:47.456Z,81.46
2022-09-26T00:46:47.269Z,81.26
2022-09-26T00:47:47.271Z,80.96
2022-09-26T00:48:47.246Z,81.46
2022-09-26T00:49:47.256Z,80.72
2022-09-26T00:50:47.242Z,81.57
2022-09-26T00:51:47.210Z,81.46
2022-09-26T00:52:47.203Z,81.26
2022-09-26T00:53:47.198Z,81.32
2022-09-26T00:54:47.233Z,81.43
2022-09-26T00:55:47.169Z,80.55
2022-09-26T00:56:47.184Z,80.65
2022-09-26T00:57:47.146Z,80.55
2022-09-26T00:58:47.137Z,80.96
2022-09-26T00:59:47.143Z,81.37
2022-09-26T01:00:47.137Z,81.46
2022-09-26T01:01:47.281Z,81.26
2022-09-26T01:02:47.193Z,81.57
2022-09-26T01:03:47.125Z,81.16
2022-09-26T01:04:47.100Z,80.86
2022-09-26T01:05:47.060Z,81.26
2022-09-26T01:06:47.052Z,81.16
2022-09-26T01:07:47.079Z,80.99
2022-09-26T01:08:47.022Z,81.06
2022-09-26T01:09:47.026Z,81.10
2022-09-26T01:10:47.034Z,81.60
2022-09-26T01:11:46.990Z,81.71
2022-09-26T01:12:47.008Z,82.42
2022-09-26T01:13:46.993Z,81.81
2022-09-26T01:14:46.997Z,82.11
2022-09-26T01:15:46.974Z,81.81
2022-09-26T01:16:47.062Z,82.31
2022-09-26T01:17:46.927Z,82.31
2022-09-26T01:18:46.936Z,82.31
2022-09-26T01:19:46.903Z,82.21
2022-09-26T01:20:46.940Z,82.28
2022-09-26T01:21:46.886Z,82.01
2022-09-26T01:22:46.884Z,81.97
2022-09-26T01:23:46.886Z,82.17
2022-09-26T01:24:46.864Z,81.81
2022-09-26T01:25:46.840Z,81.71
2022-09-26T01:26:46.828Z,81.81
2022-09-26T01:27:46.896Z,81.50
2022-09-26T01:28:46.845Z,81.87
2022-09-26T01:29:46.799Z,81.87
2022-09-26T01:30:46.878Z,81.77
2022-09-26T01:31:46.816Z,81.87
2022-09-26T01:32:46.760Z,81.57
2022-09-26T01:33:46.764Z,81.40
2022-09-26T01:34:46.759Z,81.20
2022-09-26T01:35:46.731Z,80.90
2022-09-26T01:36:46.744Z,80.86
2022-09-26T01:37:46.706Z,80.96
2022-09-26T01:38:46.695Z,81.77
2022-09-26T01:39:46.716Z,81.30
2022-09-26T01:40:46.760Z,81.26
2022-09-26T01:41:46.686Z,81.37
2022-09-26T01:42:46.674Z,81.26
2022-09-26T01:43:46.640Z,81.40
2022-09-26T01:44:46.646Z,80.86
2022-09-26T01:45:46.754Z,80.86
2022-09-26T01:46:46.606Z,81.26
2022-09-26T01:47:46.606Z,81.67
2022-09-26T01:48:46.596Z,81.77
2022-09-26T01:49:46.630Z,81.57
2022-09-26T01:50:46.565Z,80.86
2022-09-26T01:51:46.568Z,80.49
2022-09-26T01:52:46.551Z,81.20
2022-09-26T01:53:46.560Z,81.50
2022-09-26T01:54:46.546Z,81.57
2022-09-26T01:55:46.551Z,81.06
2022-09-26T01:56:46.511Z,81.37
2022-09-26T01:57:46.507Z,81.06
2022-09-26T01:58:46.483Z,81.26
2022-09-26T01:59:46.496Z,81.26
2022-09-26T02:00:46.539Z,81.37
2022-09-26T02:01:46.580Z,80.90
2022-09-26T02:02:46.611Z,80.96
2022-09-26T02:03:46.435Z,81.60
2022-09-26T02:04:46.413Z,80.96
2022-09-26T02:05:46.437Z,80.86
2022-09-26T02:06:46.392Z,81.71
2022-09-26T02:07:46.377Z,81.37
2022-09-26T02:08:46.396Z,81.20
2022-09-26T02:09:46.455Z,81.30
2022-09-26T02:10:46.377Z,81.40
2022-09-26T02:11:46.363Z,81.60
2022-09-26T02:12:46.350Z,81.60
2022-09-26T02:13:46.317Z,81.40
2022-09-26T02:14:46.336Z,81.81
2022-09-26T02:15:46.299Z,81.67
2022-09-26T02:16:46.455Z,81.81
2022-09-26T02:17:46.279Z,81.81
2022-09-26T02:18:46.257Z,82.11
2022-09-26T02:19:46.254Z,81.91
2022-09-26T02:20:46.250Z,81.81
2022-09-26T02:21:46.227Z,81.91
2022-09-26T02:22:46.246Z,82.31
2022-09-26T02:23:46.205Z,83.12
2022-09-26T02:24:46.226Z,83.03
2022-09-26T02:25:46.183Z,83.03
2022-09-26T02:26:46.175Z,83.03
2022-09-26T02:27:46.184Z,83.03
2022-09-26T02:28:46.171Z,82.11
2022-09-26T02:29:46.137Z,81.71
2022-09-26T02:30:46.125Z,82.21
2022-09-26T02:31:46.212Z,82.31
2022-09-26T02:32:46.227Z,83.03
2022-09-26T02:33:46.098Z,83.03
2022-09-26T02:34:46.114Z,82.82
2022-09-26T02:35:46.093Z,83.03
2022-09-26T02:36:46.065Z,82.72
2022-09-26T02:37:46.118Z,82.92
2022-09-26T02:38:46.058Z,82.82
2022-09-26T02:39:46.086Z,82.72
2022-09-26T02:40:46.089Z,82.82
2022-09-26T02:41:46.006Z,82.82
2022-09-26T02:42:45.995Z,82.82
2022-09-26T02:43:45.985Z,82.72
2022-09-26T02:44:46.028Z,83.03
2022-09-26T02:45:46.022Z,82.82
2022-09-26T02:46:45.964Z,82.92
2022-09-26T02:47:45.950Z,82.92
2022-09-26T02:48:45.949Z,82.42
2022-09-26T02:49:45.959Z,83.03
2022-09-26T02:50:45.910Z,82.92
2022-09-26T02:51:45.935Z,83.03
2022-09-26T02:52:45.906Z,82.62
2022-09-26T02:53:45.877Z,82.72
2022-09-26T02:54:45.863Z,82.92
2022-09-26T02:55:45.957Z,82.11
2022-09-26T02:56:45.882Z,83.03
2022-09-26T02:57:45.842Z,83.03
2022-09-26T02:58:45.855Z,82.62
2022-09-26T02:59:45.821Z,82.72
2022-09-26T03:00:45.886Z,82.72
2022-09-26T03:01:45.824Z,82.82
2022-09-26T03:02:45.805Z,82.62
2022-09-26T03:03:45.875Z,82.72
2022-09-26T03:04:45.900Z,82.82
2022-09-26T03:05:45.743Z,82.62
2022-09-26T03:06:45.741Z,82.72
2022-09-26T03:07:45.742Z,82.92
2022-09-26T03:08:45.709Z,82.92
2022-09-26T03:09:45.715Z,82.31
2022-09-26T03:10:45.691Z,82.35
2022-09-26T03:11:45.682Z,82.35
2022-09-26T03:12:45.750Z,82.82
2022-09-26T03:13:45.658Z,82.82
2022-09-26T03:14:45.648Z,82.82
2022-09-26T03:15:45.659Z,82.62
2022-09-26T03:16:45.678Z,82.82
2022-09-26T03:17:45.613Z,82.82
2022-09-26T03:18:45.633Z,82.31
2022-09-26T03:19:45.598Z,82.05
2022-09-26T03:20:45.635Z,82.35
2022-09-26T03:21:45.597Z,82.62
2022-09-26T03:22:45.555Z,82.62
2022-09-26T03:23:45.549Z,83.03
2022-09-26T03:24:45.560Z,82.11
2022-09-26T03:25:45.528Z,82.21
2022-09-26T03:26:45.537Z,82.42
2022-09-26T03:27:45.545Z,82.31
2022-09-26T03:28:45.493Z,81.71
2022-09-26T03:29:45.499Z,82.21
2022-09-26T03:30:45.482Z,82.11
2022-09-26T03:31:45.571Z,81.91
2022-09-26T03:32:45.466Z,81.40
2022-09-26T03:33:45.469Z,81.71
2022-09-26T03:34:45.423Z,81.30
2022-09-26T03:35:45.415Z,81.30
2022-09-26T03:36:45.453Z,81.10
2022-09-26T03:37:45.437Z,81.30
2022-09-26T03:38:45.414Z,81.40
2022-09-26T03:39:45.368Z,81.30
2022-09-26T03:40:45.432Z,81.20
2022-09-26T03:41:45.371Z,81.40
2022-09-26T03:42:45.337Z,81.30
2022-09-26T03:43:47.290Z,81.30
2022-09-26T03:44:45.339Z,81.40
2022-09-26T03:45:45.331Z,81.20
2022-09-26T03:46:45.293Z,81.50
2022-09-26T03:47:45.310Z,81.71
2022-09-26T03:48:45.290Z,81.71
2022-09-26T03:49:45.284Z,81.81
2022-09-26T03:50:45.280Z,81.91
2022-09-26T03:51:45.237Z,81.81
2022-09-26T03:52:45.265Z,81.81
2022-09-26T03:53:45.248Z,81.91
2022-09-26T03:54:45.204Z,81.81
2022-09-26T03:55:45.192Z,82.05
2022-09-26T03:56:45.182Z,82.25
2022-09-26T03:57:45.174Z,82.35
2022-09-26T03:58:45.235Z,82.25
2022-09-26T03:59:45.160Z,82.56
2022-09-26T04:00:45.206Z,82.96
2022-09-26T04:01:45.272Z,82.76
2022-09-26T04:02:45.114Z,82.96
2022-09-26T04:03:50.045Z,82.66
2022-09-26T04:04:45.095Z,83.06
2022-09-26T04:05:45.094Z,82.96
2022-09-26T04:06:45.094Z,83.37
2022-09-26T04:07:45.074Z,83.26
2022-09-26T04:08:45.101Z,83.47
2022-09-26T04:09:45.046Z,82.76
2022-09-26T04:10:45.030Z,82.96
2022-09-26T04:11:45.016Z,83.26
2022-09-26T04:12:45.038Z,82.86
2022-09-26T04:13:53.500Z,82.66
2022-09-26T04:14:46.059Z,82.96
2022-09-26T04:15:44.973Z,82.66
2022-09-26T04:16:45.080Z,82.96
2022-09-26T04:17:44.950Z,83.06
2022-09-26T04:18:44.958Z,82.45
2022-09-26T04:19:44.957Z,83.06
2022-09-26T04:20:44.921Z,82.15
2022-09-26T04:21:44.905Z,82.25
2022-09-26T04:22:44.898Z,82.15
2022-09-26T04:23:44.892Z,82.35
2022-09-26T04:24:44.901Z,81.95
2022-09-26T04:25:45.255Z,81.95
2022-09-26T04:26:44.856Z,81.78
2022-09-26T04:27:44.873Z,81.74
2022-09-26T04:28:44.844Z,81.88
2022-09-26T04:29:44.850Z,81.88
2022-09-26T04:30:44.807Z,82.19
2022-09-26T04:31:44.922Z,82.29
2022-09-26T04:32:44.852Z,81.78
2022-09-26T04:33:44.771Z,82.29
2022-09-26T04:34:44.783Z,82.09
2022-09-26T04:35:44.768Z,81.88
2022-09-26T04:36:44.760Z,82.09
2022-09-26T04:37:44.727Z,81.88
2022-09-26T04:38:44.721Z,82.09
2022-09-26T04:39:44.727Z,81.99
2022-09-26T04:40:44.748Z,81.68
2022-09-26T04:41:44.704Z,81.11
2022-09-26T04:42:44.708Z,81.27
2022-09-26T04:43:44.671Z,81.62
2022-09-26T04:44:44.649Z,81.41
2022-09-26T04:45:44.729Z,81.01
2022-09-26T04:46:44.659Z,81.62
2022-09-26T04:47:44.661Z,81.62
2022-09-26T04:48:45.206Z,81.41
2022-09-26T04:49:44.592Z,81.41
2022-09-26T04:50:44.582Z,81.92
2022-09-26T04:51:44.600Z,81.62
2022-09-26T04:52:44.574Z,81.62
2022-09-26T04:53:44.569Z,81.11
2022-09-26T04:54:44.565Z,81.52
2022-09-26T04:55:44.567Z,81.62
2022-09-26T04:56:44.532Z,81.62
2022-09-26T04:57:44.516Z,81.41
2022-09-26T04:58:44.523Z,81.72
2022-09-26T04:59:44.490Z,81.35
2022-09-26T05:00:44.532Z,81.56
2022-09-26T05:01:44.534Z,81.52
2022-09-26T05:02:44.507Z,81.41
2022-09-26T05:03:44.441Z,81.41
2022-09-26T05:04:44.452Z,81.62
2022-09-26T05:05:44.464Z,81.01
2022-09-26T05:06:44.452Z,81.62
2022-09-26T05:07:44.398Z,81.82
2022-09-26T05:08:44.388Z,81.72
2022-09-26T05:09:44.372Z,80.91
2022-09-26T05:10:44.377Z,80.71
2022-09-26T05:11:44.374Z,80.50
2022-09-26T05:12:44.355Z,80.80
2022-09-26T05:13:44.331Z,80.71
2022-09-26T05:14:44.379Z,81.31
2022-09-26T05:15:44.304Z,81.35
2022-09-26T05:16:44.353Z,81.15
2022-09-26T05:17:44.284Z,81.25
2022-09-26T05:18:44.273Z,81.41
2022-09-26T05:19:44.291Z,81.52
2022-09-26T05:20:44.263Z,81.35
2022-09-26T05:21:44.352Z,80.64
2022-09-26T05:22:44.249Z,81.35
2022-09-26T05:23:45.224Z,81.15
2022-09-26T05:24:44.208Z,81.25
2022-09-26T05:25:44.193Z,81.45
2022-09-26T05:26:44.184Z,81.49
2022-09-26T05:27:44.182Z,80.98
2022-09-26T05:28:44.187Z,81.96
2022-09-26T05:29:44.309Z,80.78
2022-09-26T05:30:44.143Z,81.79
2022-09-26T05:31:44.183Z,81.59
2022-09-26T05:32:44.140Z,81.39
2022-09-26T05:33:44.118Z,81.49
2022-09-26T05:34:44.093Z,81.39
2022-09-26T05:35:44.147Z,81.49
2022-09-26T05:36:44.133Z,81.59
2022-09-26T05:37:44.072Z,81.59
2022-09-26T05:38:44.060Z,81.56
2022-09-26T05:39:44.061Z,81.90
2022-09-26T05:40:44.123Z,80.98
2022-09-26T05:41:44.014Z,81.86
2022-09-26T05:42:44.106Z,80.58
2022-09-26T05:43:44.001Z,81.79
2022-09-26T05:44:44.014Z,80.98
2022-09-26T05:45:43.999Z,80.88
2022-09-26T05:46:44.042Z,81.35
2022-09-26T05:47:43.963Z,81.39
2022-09-26T05:48:43.985Z,81.49
2022-09-26T05:49:43.962Z,81.49
2022-09-26T05:50:43.930Z,81.39
2022-09-26T05:51:43.937Z,80.78
2022-09-26T05:52:43.896Z,80.88
2022-09-26T05:53:43.886Z,81.59
2022-09-26T05:54:43.886Z,81.70
2022-09-26T05:55:43.862Z,81.70
2022-09-26T05:56:43.874Z,81.70
2022-09-26T05:57:43.867Z,81.49
2022-09-26T05:58:43.826Z,81.29
2022-09-26T05:59:43.816Z,81.70
2022-09-26T06:00:43.880Z,81.59
2022-09-26T06:01:43.915Z,81.59
2022-09-26T06:02:43.976Z,81.49
2022-09-26T06:03:43.775Z,81.49
2022-09-26T06:04:43.761Z,81.70
2022-09-26T06:05:43.751Z,81.79
2022-09-26T06:06:43.769Z,81.49
2022-09-26T06:07:43.787Z,81.56
2022-09-26T06:08:43.748Z,80.94
2022-09-26T06:09:43.704Z,81.15
2022-09-26T06:10:43.706Z,81.35
2022-09-26T06:11:43.685Z,81.45
2022-09-26T06:12:47.594Z,81.45
2022-09-26T06:13:43.708Z,81.15
2022-09-26T06:14:43.676Z,80.33
2022-09-26T06:15:43.640Z,80.54
2022-09-26T06:16:43.737Z,80.24
2022-09-26T06:17:43.649Z,80.10
2022-09-26T06:18:43.638Z,80.13
2022-09-26T06:19:43.618Z,79.49
2022-09-26T06:20:43.621Z,79.69
2022-09-26T06:21:43.573Z,79.99
2022-09-26T06:22:43.565Z,79.52
2022-09-26T06:23:43.562Z,79.90
2022-09-26T06:24:43.550Z,79.32
2022-09-26T06:25:43.559Z,79.83
2022-09-26T06:26:43.521Z,79.72
2022-09-26T06:27:43.509Z,79.72
2022-09-26T06:28:43.532Z,79.72
2022-09-26T06:29:43.510Z,79.79
2022-09-26T06:30:43.484Z,80.19
2022-09-26T06:31:43.540Z,79.49
2022-09-26T06:32:43.488Z,78.78
2022-09-26T06:33:43.438Z,78.78
2022-09-26T06:34:43.435Z,78.88
2022-09-26T06:35:43.437Z,79.49
2022-09-26T06:36:43.441Z,78.88
2022-09-26T06:37:43.423Z,78.67
2022-09-26T06:38:43.384Z,79.08
2022-09-26T06:39:43.386Z,78.78
2022-09-26T06:40:43.483Z,78.57
2022-09-26T06:41:43.360Z,78.67
2022-09-26T06:42:43.358Z,78.78
2022-09-26T06:43:43.349Z,78.88
2022-09-26T06:44:43.353Z,78.88
2022-09-26T06:45:43.306Z,78.64
2022-09-26T06:46:43.601Z,78.57
2022-09-26T06:47:43.291Z,78.44
2022-09-26T06:48:43.299Z,78.33
2022-09-26T06:49:43.300Z,78.64
2022-09-26T06:50:43.248Z,78.44
2022-09-26T06:51:43.238Z,78.33
2022-09-26T06:52:43.250Z,78.03
2022-09-26T06:53:43.538Z,78.03
2022-09-26T06:54:43.219Z,77.72
2022-09-26T06:55:43.194Z,77.42
2022-09-26T06:56:43.184Z,77.52
2022-09-26T06:57:43.187Z,77.52
2022-09-26T06:58:43.171Z,77.28
2022-09-26T06:59:43.157Z,76.81
2022-09-26T07:00:43.319Z,76.20
2022-09-26T07:01:43.245Z,76.51
2022-09-26T07:02:43.141Z,76.71
2022-09-26T07:03:45.996Z,76.20
2022-09-26T07:04:43.115Z,76.20
2022-09-26T07:05:43.093Z,76.78
2022-09-26T07:06:43.082Z,76.06
2022-09-26T07:07:43.073Z,75.86
2022-09-26T07:09:01.381Z,76.06
2022-09-26T07:09:44.037Z,76.20
2022-09-26T07:10:43.029Z,75.96
2022-09-26T07:12:10.081Z,76.47
2022-09-26T07:12:43.377Z,75.66
2022-09-26T07:13:42.994Z,75.96
2022-09-26T07:14:42.983Z,76.47
2022-09-26T07:15:43.051Z,76.43
2022-09-26T07:16:43.009Z,76.03
2022-09-26T07:17:42.986Z,75.73
2022-09-26T07:18:42.997Z,75.42
2022-09-26T07:19:42.969Z,75.01
2022-09-26T07:20:42.971Z,75.22
2022-09-26T07:21:42.935Z,74.81
2022-09-26T07:22:42.897Z,74.91
2022-09-26T07:23:42.892Z,75.32
2022-09-26T07:24:42.905Z,75.52
2022-09-26T07:25:42.922Z,75.22
2022-09-26T07:26:42.861Z,75.01
2022-09-26T07:27:42.866Z,74.71
2022-09-26T07:28:42.834Z,74.91
2022-09-26T07:29:42.839Z,74.48
2022-09-26T07:30:42.809Z,74.57
2022-09-26T07:31:42.885Z,74.57
2022-09-26T07:32:42.792Z,74.68
2022-09-26T07:33:42.813Z,74.07
2022-09-26T07:34:42.792Z,73.76
2022-09-26T07:35:42.785Z,73.63
2022-09-26T07:36:42.755Z,73.56
2022-09-26T07:37:42.737Z,73.66
2022-09-26T07:38:42.748Z,73.97
2022-09-26T07:39:42.702Z,73.83
2022-09-26T07:40:42.874Z,73.22
2022-09-26T07:41:42.703Z,73.53
2022-09-26T07:42:47.765Z,73.16
2022-09-26T07:45:42.688Z,72.61
2022-09-26T07:46:42.695Z,72.52
2022-09-26T07:47:42.657Z,72.61
2022-09-26T07:48:42.606Z,72.61
2022-09-26T07:49:42.604Z,72.21
2022-09-26T07:50:42.586Z,72.11
2022-09-26T07:51:42.663Z,72.21
2022-09-26T07:52:42.778Z,71.60
2022-09-26T07:53:42.551Z,71.09
2022-09-26T07:54:42.556Z,71.80
2022-09-26T07:55:42.539Z,71.50
2022-09-26T07:56:42.551Z,71.47
2022-09-26T07:57:42.514Z,71.30
2022-09-26T07:58:42.520Z,71.40
2022-09-26T07:59:42.548Z,71.30
2022-09-26T08:00:42.494Z,71.09
2022-09-26T08:01:42.624Z,71.60
2022-09-26T08:02:42.560Z,71.16
2022-09-26T08:03:42.456Z,71.97
2022-09-26T08:04:42.429Z,71.26
2022-09-26T08:05:42.436Z,70.86
2022-09-26T08:06:42.417Z,70.45
2022-09-26T08:07:42.417Z,70.25
2022-09-26T08:08:42.403Z,70.32
2022-09-26T08:09:42.376Z,71.06
2022-09-26T08:10:42.389Z,71.03
2022-09-26T08:11:42.398Z,70.42
2022-09-26T08:12:44.137Z,69.92
2022-09-26T08:13:42.327Z,69.81
2022-09-26T08:14:42.321Z,69.31
2022-09-26T08:15:42.429Z,69.71
2022-09-26T08:16:42.296Z,69.21
2022-09-26T08:17:42.293Z,69.51
2022-09-26T08:18:42.269Z,69.10
2022-09-26T08:19:42.259Z,69.48
2022-09-26T08:20:42.255Z,69.51
2022-09-26T08:21:42.269Z,69.27
2022-09-26T08:22:42.230Z,68.97
2022-09-26T08:23:42.232Z,69.07
2022-09-26T08:24:42.225Z,68.97
2022-09-26T08:25:42.229Z,69.07
2022-09-26T08:26:44.575Z,68.57
2022-09-26T08:27:42.171Z,68.26
2022-09-26T08:28:42.158Z,67.96
2022-09-26T08:29:42.173Z,67.55
2022-09-26T08:30:42.178Z,67.15
2022-09-26T08:31:42.186Z,67.25
2022-09-26T08:32:42.200Z,67.52
2022-09-26T08:33:42.157Z,67.52
2022-09-26T08:34:42.097Z,66.24
2022-09-26T08:35:42.081Z,67.76
2022-09-26T08:36:42.070Z,67.93
2022-09-26T08:37:42.064Z,66.11
2022-09-26T08:38:42.073Z,65.61
2022-09-26T08:39:42.044Z,66.11
2022-09-26T08:40:42.187Z,65.91
2022-09-26T08:41:42.029Z,65.91
2022-09-26T08:42:42.004Z,65.81
2022-09-26T08:43:42.026Z,65.00
2022-09-26T08:44:41.998Z,64.39
2022-09-26T08:45:45.319Z,65.40
2022-09-26T08:46:42.010Z,65.10
2022-09-26T08:47:41.955Z,64.26
2022-09-26T08:48:41.973Z,64.19
2022-09-26T08:49:41.957Z,63.96
2022-09-26T08:50:41.945Z,64.67
2022-09-26T08:51:41.967Z,64.06
2022-09-26T08:52:41.896Z,64.16
2022-09-26T08:53:41.893Z,63.85
2022-09-26T08:54:41.909Z,62.34
2022-09-26T08:55:41.869Z,61.73
2022-09-26T08:56:41.982Z,62.24
2022-09-26T08:57:41.885Z,62.34
2022-09-26T08:58:41.868Z,61.94
2022-09-26T08:59:41.819Z,63.15
2022-09-26T09:00:41.808Z,62.34
2022-09-26T09:01:41.954Z,62.11
2022-09-26T09:02:41.928Z,62.85
2022-09-26T09:03:41.774Z,62.31
2022-09-26T09:04:41.762Z,61.20
2022-09-26T09:05:41.780Z,62.21
2022-09-26T09:06:41.774Z,62.21
2022-09-26T09:07:41.740Z,62.31
2022-09-26T09:08:41.722Z,61.30
2022-09-26T09:09:41.707Z,61.51
2022-09-26T09:10:41.697Z,61.27
2022-09-26T09:11:41.723Z,61.17
2022-09-26T09:12:41.713Z,61.37
2022-09-26T09:13:41.695Z,61.91
2022-09-26T09:14:41.660Z,61.17
2022-09-26T09:15:41.683Z,61.77
2022-09-26T09:16:41.648Z,60.46
2022-09-26T09:17:41.635Z,60.97
2022-09-26T09:18:41.628Z,60.94
2022-09-26T09:19:41.627Z,60.03
2022-09-26T09:20:41.593Z,60.74
2022-09-26T09:21:42.227Z,61.14
2022-09-26T09:22:41.590Z,60.84
2022-09-26T09:23:41.581Z,59.93
2022-09-26T09:24:41.647Z,59.93
2022-09-26T09:25:41.562Z,60.13
2022-09-26T09:28:02.656Z,60.61
2022-09-26T09:28:42.531Z,60.53
2022-09-26T09:29:41.528Z,60.21
2022-09-26T09:30:41.482Z,60.31
2022-09-26T09:31:41.564Z,58.39
2022-09-26T09:32:41.453Z,59.42
2022-09-26T09:33:41.490Z,60.03
2022-09-26T09:34:41.455Z,60.33
2022-09-26T09:35:41.446Z,60.24
2022-09-26T09:36:41.432Z,60.53
2022-09-26T09:37:41.453Z,60.64
2022-09-26T09:38:41.386Z,59.53
2022-09-26T09:39:41.379Z,58.72
2022-09-26T09:40:41.448Z,58.72
2022-09-26T09:41:41.369Z,59.22
2022-09-26T09:42:41.354Z,58.82
2022-09-26T09:43:41.347Z,58.69
2022-09-26T09:44:46.242Z,58.39
2022-09-26T09:45:42.342Z,58.52
2022-09-26T09:46:41.426Z,57.89
2022-09-26T09:47:41.301Z,56.60
2022-09-26T09:48:41.295Z,57.61
2022-09-26T09:49:41.277Z,58.22
2022-09-26T09:50:41.283Z,58.01
2022-09-26T09:51:41.254Z,58.09
2022-09-26T09:52:41.235Z,57.89
2022-09-26T09:53:41.236Z,58.39
2022-09-26T09:54:41.238Z,58.59
2022-09-26T09:55:41.208Z,58.56
2022-09-26T09:56:41.216Z,58.97
2022-09-26T09:57:41.196Z,58.67
2022-09-26T09:58:41.208Z,58.67
2022-09-26T09:59:41.179Z,57.76
2022-09-26T10:00:41.165Z,57.25
2022-09-26T10:01:41.138Z,57.73
2022-09-26T10:02:41.212Z,58.23
2022-09-26T10:03:41.121Z,58.61
2022-09-26T10:04:41.124Z,58.11
2022-09-26T10:05:41.121Z,58.11
2022-09-26T10:06:44.410Z,57.00
2022-09-26T10:07:41.162Z,57.81
2022-09-26T10:08:41.177Z,55.01
2022-09-26T10:09:41.253Z,54.58
2022-09-26T10:10:42.023Z,54.68
2022-09-26T10:11:41.699Z,54.28
2022-09-26T10:12:41.206Z,54.79
2022-09-26T10:13:41.064Z,54.28
2022-09-26T10:14:41.067Z,55.08
2022-09-26T10:15:41.026Z,53.88
2022-09-26T10:16:41.016Z,54.48
2022-09-26T10:17:40.992Z,54.68
2022-09-26T10:18:40.957Z,54.30
2022-09-26T10:19:40.941Z,56.22
2022-09-26T10:20:40.935Z,55.74
2022-09-26T10:21:40.956Z,54.33
2022-09-26T10:22:40.926Z,55.04
2022-09-26T10:23:40.896Z,54.63
2022-09-26T10:24:40.927Z,55.74
2022-09-26T10:25:40.874Z,55.71
2022-09-26T10:26:40.911Z,56.12
2022-09-26T10:27:41.168Z,55.99
2022-09-26T10:28:40.875Z,56.09
2022-09-26T10:29:40.834Z,57.20
2022-09-26T10:30:40.820Z,57.37
2022-09-26T10:31:42.902Z,55.59
2022-09-26T10:32:40.831Z,56.60
2022-09-26T10:33:40.794Z,55.62
2022-09-26T10:34:40.783Z,56.09
2022-09-26T10:35:40.798Z,56.09
2022-09-26T10:36:40.775Z,55.79
2022-09-26T10:37:40.742Z,55.08
2022-09-26T10:38:40.731Z,55.49
2022-09-26T10:39:40.723Z,55.39
2022-09-26T10:40:40.835Z,55.41
2022-09-26T10:41:40.730Z,54.50
2022-09-26T10:42:40.688Z,55.19
2022-09-26T10:43:40.706Z,54.99
2022-09-26T10:44:40.664Z,55.46
2022-09-26T10:45:40.681Z,54.66
2022-09-26T10:46:40.686Z,55.26
2022-09-26T10:47:40.669Z,55.46
2022-09-26T10:48:40.639Z,55.36
2022-09-26T10:49:40.618Z,56.07
2022-09-26T10:50:40.604Z,56.37
2022-09-26T10:51:40.602Z,56.67
2022-09-26T10:52:40.591Z,56.27
2022-09-26T10:53:40.584Z,55.66
2022-09-26T10:54:40.557Z,56.40
2022-09-26T10:55:40.553Z,56.20
2022-09-26T10:56:40.562Z,57.10
2022-09-26T10:57:40.528Z,57.37
2022-09-26T10:58:40.536Z,56.47
2022-09-26T10:59:40.499Z,57.17
2022-09-26T11:00:40.497Z,56.97
2022-09-26T11:01:40.568Z,55.87
2022-09-26T11:02:40.465Z,56.67
2022-09-26T11:03:40.564Z,55.76
2022-09-26T11:04:40.462Z,56.67
2022-09-26T11:05:40.438Z,56.64
2022-09-26T11:06:40.420Z,56.24
2022-09-26T11:07:40.448Z,56.64
2022-09-26T11:08:40.417Z,57.35
2022-09-26T11:09:40.403Z,57.35
2022-09-26T11:10:40.437Z,55.87
2022-09-26T11:11:40.383Z,56.34
2022-09-26T11:12:40.357Z,56.24
2022-09-26T11:13:40.339Z,55.94
2022-09-26T11:14:40.330Z,55.46
2022-09-26T11:15:40.445Z,55.33
2022-09-26T11:16:40.374Z,56.47
2022-09-26T11:17:40.300Z,56.34
2022-09-26T11:18:40.337Z,56.47
2022-09-26T11:19:40.304Z,56.87
2022-09-26T11:20:40.326Z,57.55
2022-09-26T11:21:40.254Z,56.37
2022-09-26T11:22:40.256Z,56.95
2022-09-26T11:23:40.264Z,56.95
2022-09-26T11:24:40.380Z,56.44
2022-09-26T11:25:40.209Z,57.95
2022-09-26T11:26:40.200Z,55.96
2022-09-26T11:27:40.222Z,55.74
2022-09-26T11:28:40.215Z,56.34
2022-09-26T11:29:40.235Z,57.15
2022-09-26T11:30:40.186Z,57.65
2022-09-26T11:31:40.525Z,57.75
2022-09-26T11:32:40.137Z,57.45
2022-09-26T11:33:40.184Z,56.95
2022-09-26T11:34:40.322Z,56.64
2022-09-26T11:35:40.123Z,56.14
2022-09-26T11:36:40.101Z,56.14
2022-09-26T11:37:40.304Z,56.27
2022-09-26T11:38:40.258Z,56.57
2022-09-26T11:39:40.071Z,56.70
2022-09-26T11:40:40.126Z,55.79
2022-09-26T11:41:40.057Z,56.37
2022-09-26T11:42:40.043Z,57.00
2022-09-26T11:43:40.028Z,57.70
2022-09-26T11:44:40.090Z,57.40
2022-09-26T11:45:43.945Z,57.30
2022-09-26T11:46:40.055Z,57.37
2022-09-26T11:47:39.961Z,57.90
2022-09-26T11:48:39.965Z,57.50
2022-09-26T11:49:39.979Z,57.20
2022-09-26T11:50:39.926Z,57.60
2022-09-26T11:51:39.944Z,57.30
2022-09-26T11:52:39.939Z,58.11
2022-09-26T11:53:39.897Z,58.01
2022-09-26T11:54:39.902Z,57.20
2022-09-26T11:55:39.872Z,57.40
2022-09-26T11:56:39.878Z,57.70
2022-09-26T11:57:39.855Z,58.01
2022-09-26T11:58:39.879Z,57.73
2022-09-26T11:59:39.840Z,57.70
2022-09-26T12:00:39.840Z,57.50
2022-09-26T12:01:39.848Z,58.21
2022-09-26T12:02:39.976Z,58.21
2022-09-26T12:03:39.998Z,57.68
2022-09-26T12:04:39.813Z,57.37
2022-09-26T12:05:39.836Z,57.98
2022-09-26T12:06:39.769Z,57.68
2022-09-26T12:07:39.741Z,56.27
2022-09-26T12:08:39.747Z,55.76
2022-09-26T12:09:39.756Z,55.96
2022-09-26T12:10:39.736Z,55.46
2022-09-26T12:11:39.843Z,54.43
2022-09-26T12:12:40.630Z,55.63
2022-09-26T12:13:39.680Z,55.33
2022-09-26T12:14:39.667Z,53.92
2022-09-26T12:15:39.717Z,53.95
2022-09-26T12:16:39.650Z,51.93
2022-09-26T12:17:39.691Z,52.44
2022-09-26T12:18:39.613Z,52.24
2022-09-26T12:19:39.620Z,52.94
2022-09-26T12:20:39.771Z,53.05
2022-09-26T12:21:39.611Z,52.14
2022-09-26T12:22:39.636Z,52.84
2022-09-26T12:23:39.581Z,52.97
2022-09-26T12:24:39.618Z,54.08
2022-09-26T12:25:39.634Z,53.34
2022-09-26T12:26:39.554Z,53.25
2022-09-26T12:27:39.514Z,53.52
2022-09-26T12:28:39.567Z,53.52
2022-09-26T12:29:39.560Z,54.00
2022-09-26T12:30:39.521Z,53.20
2022-09-26T12:31:39.551Z,52.51
2022-09-26T12:32:39.481Z,53.52
2022-09-26T12:33:39.446Z,52.22
2022-09-26T12:34:39.459Z,51.71
2022-09-26T12:35:39.468Z,50.60
2022-09-26T12:36:39.426Z,51.09
2022-09-26T12:37:39.427Z,50.76
2022-09-26T12:38:39.396Z,51.39
2022-09-26T12:39:39.406Z,51.59
2022-09-26T12:40:39.456Z,50.98
2022-09-26T12:41:39.376Z,50.48
2022-09-26T12:42:39.360Z,50.48
2022-09-26T12:43:39.347Z,50.48
2022-09-26T12:44:39.327Z,50.08
2022-09-26T12:45:39.332Z,51.18
2022-09-26T12:46:39.366Z,51.79
2022-09-26T12:47:39.303Z,51.89
2022-09-26T12:48:39.342Z,50.89
2022-09-26T12:49:39.268Z,49.90
2022-09-26T12:50:39.306Z,50.60
2022-09-26T12:51:39.316Z,50.91
2022-09-26T12:52:39.327Z,50.40
2022-09-26T12:53:39.235Z,50.23
2022-09-26T12:54:39.302Z,51.64
2022-09-26T12:55:39.204Z,51.14